createdAt,value
2022-09-17T00:53:17.984Z,17.22
2022-09-17T00:56:04.637Z,17.26
2022-09-17T00:58:32.744Z,17.29
2022-09-17T01:01:00.093Z,17.33
2022-09-17T01:03:45.444Z,17.33
2022-09-17T01:06:37.527Z,17.22
2022-09-17T02:35:53.953Z,17.10
2022-09-17T02:38:28.592Z,17.01
2022-09-17T02:41:00.835Z,17.00
2022-09-17T02:43:27.666Z,16.98
2022-09-17T02:49:43.695Z,16.97
2022-09-17T03:23:30.039Z,16.68
2022-09-17T03:25:56.452Z,16.67
2022-09-17T03:28:23.331Z,16.27
2022-09-17T03:30:49.736Z,16.32
2022-09-17T03:33:16.491Z,16.13
2022-09-17T03:36:24.667Z,16.28
2022-09-17T03:39:16.011Z,16.04
2022-09-17T04:24:39.935Z,15.22
2022-09-17T04:27:07.185Z,15.10
2022-09-17T04:29:33.630Z,15.05
2022-09-17T04:32:00.026Z,15.04
2022-09-17T04:34:26.440Z,15.00
2022-09-17T04:36:52.851Z,15.08
2022-09-17T05:39:10.982Z,16.24
2022-09-17T05:41:37.404Z,16.24
2022-09-17T05:44:03.907Z,16.28
2022-09-17T05:46:30.401Z,16.19
2022-09-17T05:48:57.472Z,16.18
2022-09-17T05:51:24.220Z,16.23
2022-09-17T05:53:50.638Z,16.37
2022-09-17T05:56:17.028Z,16.47
2022-09-17T05:58:43.421Z,16.57
2022-09-17T06:01:15.989Z,16.41
2022-09-17T06:14:03.240Z,16.33
2022-09-17T06:16:29.819Z,16.12
2022-09-17T06:27:01.996Z,15.93
2022-09-17T06:29:28.444Z,15.90
2022-09-17T07:11:13.764Z,15.99
2022-09-17T07:13:40.185Z,15.87
2022-09-17T07:16:09.784Z,16.09
2022-09-17T07:18:37.022Z,16.00
2022-09-17T07:21:04.776Z,15.96
2022-09-17T07:23:35.382Z,15.75
2022-09-17T07:26:03.376Z,15.77
2022-09-17T07:28:29.838Z,15.88
2022-09-17T07:30:56.761Z,15.65
2022-09-17T07:33:24.696Z,15.77
2022-09-17T07:35:58.032Z,15.58
2022-09-17T07:38:24.928Z,15.63
2022-09-17T07:43:27.331Z,15.86
2022-09-17T07:46:00.953Z,15.96
2022-09-17T08:05:07.153Z,16.62
2022-09-17T08:07:33.666Z,16.61
2022-09-17T08:55:42.703Z,16.39
2022-09-17T08:58:15.012Z,16.44
2022-09-17T09:00:55.484Z,16.48
2022-09-17T09:03:34.423Z,16.42
2022-09-17T09:06:01.537Z,16.60
2022-09-17T09:08:40.691Z,16.77
2022-09-17T09:11:13.466Z,16.55
2022-09-17T09:13:48.211Z,16.59
2022-09-17T10:11:19.101Z,16.63
2022-09-17T10:13:45.504Z,16.24
2022-09-17T10:16:18.208Z,16.23
2022-09-17T10:18:45.246Z,16.32
2022-09-17T10:21:31.239Z,16.44
2022-09-17T10:23:58.078Z,16.66
2022-09-17T10:26:27.037Z,16.63
2022-09-17T10:52:01.920Z,16.76
2022-09-17T10:54:51.776Z,17.02
2022-09-17T10:57:33.205Z,16.71
2022-09-17T11:00:09.311Z,16.52
2022-09-17T11:03:00.404Z,16.94
2022-09-17T11:05:26.822Z,17.28
2022-09-17T11:07:54.470Z,17.09
2022-09-17T11:43:28.001Z,16.08
2022-09-17T11:46:02.818Z,16.05
2022-09-17T11:49:06.963Z,16.02
2022-09-17T11:51:33.471Z,15.90
2022-09-17T11:59:22.327Z,15.97
2022-09-17T12:01:51.949Z,15.82
2022-09-17T12:09:26.573Z,15.81
2022-09-17T12:11:53.051Z,15.81
2022-09-17T12:14:27.988Z,15.58
2022-09-17T12:16:59.350Z,15.30
2022-09-17T12:19:34.903Z,15.11
2022-09-17T12:24:37.044Z,15.30
2022-09-17T12:35:59.718Z,15.46
2022-09-17T13:03:00.737Z,15.40
2022-09-17T15:49:35.931Z,14.74
2022-09-17T15:52:31.221Z,14.43
2022-09-17T15:54:58.901Z,14.56
2022-09-17T15:57:27.404Z,14.61
2022-09-17T15:59:55.179Z,14.43
2022-09-17T16:02:28.623Z,14.56
2022-09-17T16:05:18.488Z,14.36
2022-09-17T16:07:45.504Z,14.59
2022-09-17T16:10:14.059Z,14.36
2022-09-17T16:12:41.130Z,14.46
2022-09-17T16:15:08.670Z,14.44
2022-09-17T16:17:44.722Z,14.54
2022-09-17T16:20:25.203Z,14.61
2022-09-17T16:22:53.036Z,14.48
2022-09-17T16:28:01.205Z,14.88
2022-09-17T16:30:27.784Z,14.35
2022-09-17T16:32:54.813Z,14.64
2022-09-17T16:35:24.126Z,14.71
2022-09-17T16:40:47.230Z,14.36
2022-09-17T16:43:14.376Z,14.44
2022-09-17T16:45:41.272Z,14.42
2022-09-17T16:48:07.917Z,14.88
2022-09-17T16:50:34.895Z,15.00
2022-09-17T16:53:05.315Z,15.00
2022-09-17T16:55:32.469Z,14.74
2022-09-17T16:57:59.202Z,15.04
2022-09-17T17:00:27.399Z,15.02
2022-09-17T17:02:56.301Z,14.54
2022-09-17T17:05:25.583Z,14.91
2022-09-17T17:07:54.969Z,14.91
2022-09-17T17:10:22.974Z,14.94
2022-09-17T17:12:49.832Z,14.91
2022-09-17T17:15:16.429Z,14.90
2022-09-17T17:17:43.121Z,14.75
2022-09-17T17:20:10.304Z,14.59
2022-09-17T17:22:37.829Z,14.71
2022-09-17T17:25:06.165Z,14.75
2022-09-17T17:27:33.326Z,14.53
2022-09-17T17:30:02.410Z,14.75
2022-09-17T17:32:28.961Z,14.90
2022-09-17T17:34:55.886Z,14.81
2022-09-17T17:37:23.545Z,14.51
2022-09-17T17:39:50.151Z,14.47
2022-09-17T17:42:16.898Z,14.48
2022-09-17T17:44:45.144Z,14.66
2022-09-17T17:47:11.716Z,14.79
2022-09-17T17:49:38.227Z,14.91
2022-09-17T17:52:05.964Z,14.63
2022-09-17T17:54:33.254Z,14.62
2022-09-17T17:56:59.874Z,14.76
2022-09-17T17:59:26.472Z,14.63
2022-09-17T18:01:53.108Z,14.94
2022-09-17T18:04:19.828Z,15.01
2022-09-17T18:06:48.171Z,15.04
2022-09-17T18:09:15.127Z,14.71
2022-09-17T18:11:41.835Z,14.83
2022-09-17T18:14:11.911Z,14.83
2022-09-17T18:16:38.760Z,14.89
2022-09-17T18:19:05.951Z,14.91
2022-09-17T18:21:32.954Z,14.64
2022-09-17T18:23:59.779Z,14.75
2022-09-17T18:26:27.960Z,14.50
2022-09-17T18:28:54.840Z,14.67
2022-09-17T18:31:21.833Z,14.68
2022-09-17T18:41:54.367Z,14.64
2022-09-17T18:44:21.986Z,14.66
2022-09-17T18:46:49.983Z,14.63
2022-09-17T18:49:17.243Z,14.59
2022-09-17T18:51:44.019Z,14.61
2022-09-17T18:54:12.750Z,14.53
2022-09-17T18:56:41.412Z,14.47
2022-09-17T18:59:08.750Z,14.20
2022-09-17T19:01:35.989Z,13.95
2022-09-17T19:04:03.152Z,13.91
2022-09-17T19:06:32.193Z,13.92
2022-09-17T19:09:01.229Z,13.85
2022-09-17T19:11:28.230Z,13.78
2022-09-17T19:13:55.309Z,13.76
2022-09-17T19:16:22.300Z,13.80
2022-09-17T19:18:55.229Z,14.05
2022-09-17T19:21:21.946Z,14.28
2022-09-17T19:23:50.927Z,14.04
2022-09-17T19:26:23.308Z,13.89
2022-09-17T19:28:58.130Z,13.81
2022-09-17T19:31:25.042Z,13.90
2022-09-17T19:41:51.051Z,13.82
2022-09-17T19:44:17.682Z,13.92
2022-09-17T19:57:01.356Z,13.59
2022-09-17T19:59:27.896Z,13.47
2022-09-17T20:01:54.507Z,13.40
2022-09-17T20:07:01.588Z,13.61
2022-09-17T20:09:28.202Z,13.50
2022-09-17T20:11:54.914Z,13.57
2022-09-17T20:14:21.492Z,13.56
2022-09-17T20:16:48.057Z,13.16
2022-09-17T20:19:16.759Z,13.32
2022-09-17T20:21:43.317Z,13.49
2022-09-17T20:24:09.956Z,13.25
2022-09-17T20:43:20.544Z,13.49
2022-09-17T20:45:54.817Z,13.42
2022-09-17T20:48:21.875Z,13.32
2022-09-17T20:50:58.429Z,13.43
2022-09-17T20:53:26.080Z,13.37
2022-09-17T20:56:04.387Z,13.38
2022-09-17T20:58:34.348Z,13.43
2022-09-17T21:01:13.577Z,13.39
2022-09-17T21:03:41.403Z,13.54
2022-09-17T21:06:08.349Z,13.38
2022-09-17T21:19:57.967Z,13.46
2022-09-17T21:22:24.728Z,13.63
2022-09-17T21:24:51.282Z,13.37
2022-09-17T21:27:17.858Z,13.35
2022-09-17T21:29:44.444Z,13.54
2022-09-17T21:46:11.013Z,13.76
2022-09-17T21:48:50.249Z,13.57
2022-09-17T21:51:22.051Z,13.46
2022-09-17T21:56:37.934Z,13.45
2022-09-17T21:59:35.712Z,13.24
2022-09-17T22:02:21.298Z,13.64
2022-09-17T22:04:47.930Z,13.27
2022-09-17T22:07:14.481Z,13.42
2022-09-17T22:09:41.131Z,13.38
2022-09-17T22:12:07.780Z,13.05
2022-09-17T22:14:34.399Z,13.11
2022-09-17T22:17:07.016Z,12.90
2022-09-17T22:19:34.245Z,13.07
2022-09-17T22:22:00.822Z,13.02
2022-09-17T22:24:28.916Z,12.94
2022-09-17T22:26:58.416Z,12.83
2022-09-17T22:29:27.188Z,13.06
2022-09-17T22:32:22.699Z,12.72
2022-09-17T22:35:13.418Z,12.80
2022-09-17T22:37:40.002Z,12.73
2022-09-17T22:40:07.302Z,12.96
2022-09-17T22:42:33.960Z,13.00
2022-09-17T22:45:00.501Z,12.83
2022-09-17T22:47:27.015Z,12.71
2022-09-17T22:49:53.638Z,12.54
2022-09-17T22:52:26.075Z,12.78
2022-09-17T22:54:52.606Z,12.89
2022-09-17T22:57:19.130Z,12.68
2022-09-17T22:59:45.685Z,12.55
2022-09-17T23:02:12.232Z,12.39
2022-09-17T23:04:38.846Z,12.44
2022-09-17T23:07:17.769Z,12.36
2022-09-17T23:09:56.353Z,12.35
2022-09-17T23:12:22.912Z,12.23
2022-09-17T23:14:50.764Z,12.29
2022-09-17T23:17:17.340Z,12.52
2022-09-17T23:19:43.861Z,12.49
2022-09-17T23:22:10.498Z,12.44
2022-09-17T23:24:55.405Z,12.63
2022-09-17T23:27:21.945Z,12.61
2022-09-17T23:29:48.491Z,12.47
2022-09-17T23:32:15.027Z,12.85
2022-09-17T23:34:41.979Z,12.68
2022-09-17T23:37:08.525Z,12.79
2022-09-17T23:39:35.073Z,12.57
2022-09-17T23:50:35.425Z,13.14
2022-09-17T23:53:01.981Z,12.72
2022-09-17T23:58:03.886Z,12.64
